Time;durP1;ratioP1;P1;durP2;ratioP2;P2;SDS_P1;SDS_P2;PMS_P1;PMS_P2;Temp;Humidity;BMP_temperature;BMP_pressure;BME280_temperature;BME280_humidity;BME280_pressure;Samples;Min_cycle;Max_cycle;Signal;HPM_P1;HPM_P2
2021/04/29 00:00:10;;;;;;;0.83;0.57;;;15.80;56.90;;;;;;5009382;28;20195;-74
2021/04/29 00:02:36;;;;;;;1.17;0.70;;;15.90;58.50;;;;;;5022885;28;20188;-74
2021/04/29 00:05:06;;;;;;;1.07;0.77;;;15.80;58.20;;;;;;5003529;28;20973;-75
2021/04/29 00:07:32;;;;;;;2.20;0.90;;;15.80;56.50;;;;;;5005964;28;20192;-75
2021/04/29 00:10:01;;;;;;;2.73;0.80;;;15.70;61.90;;;;;;5004782;28;20224;-73
2021/04/29 00:12:27;;;;;;;1.77;0.70;;;15.40;65.20;;;;;;5007432;28;20324;-73
2021/04/29 00:14:53;;;;;;;2.03;0.80;;;15.20;65.10;;;;;;5019958;28;20240;-73
2021/04/29 00:17:23;;;;;;;1.00;0.67;;;15.10;66.00;;;;;;5018572;28;20181;-72
2021/04/29 00:19:49;;;;;;;0.47;0.43;;;15.10;66.10;;;;;;5021073;28;20188;-76
2021/04/29 00:22:15;;;;;;;1.40;0.80;;;15.10;64.70;;;;;;5003302;28;20185;-75
2021/04/29 00:24:42;;;;;;;2.17;0.90;;;15.00;63.90;;;;;;5007200;28;20212;-73
2021/04/29 00:27:09;;;;;;;2.07;0.87;;;15.00;64.50;;;;;;5004022;28;20196;-74
2021/04/29 00:29:35;;;;;;;1.70;0.80;;;15.00;65.30;;;;;;5007313;28;20197;-74
2021/04/29 00:32:02;;;;;;;4.70;1.03;;;15.00;64.80;;;;;;4985565;28;20803;-72
2021/04/29 00:34:28;;;;;;;2.93;0.80;;;14.90;64.80;;;;;;4993180;28;20228;-74
2021/04/29 00:36:55;;;;;;;2.30;0.80;;;14.90;65.40;;;;;;5005010;28;20246;-73
2021/04/29 00:39:23;;;;;;;0.90;0.60;;;14.80;66.60;;;;;;4988095;28;20193;-72
2021/04/29 00:41:50;;;;;;;1.10;0.90;;;14.70;66.10;;;;;;5003625;28;20188;-73
2021/04/29 00:44:17;;;;;;;2.67;0.70;;;14.80;66.60;;;;;;5002410;28;20193;-73
2021/04/29 00:46:43;;;;;;;4.47;0.93;;;14.90;64.60;;;;;;5003589;28;20671;-74
2021/04/29 00:49:09;;;;;;;2.13;0.70;;;15.00;61.50;;;;;;5004511;28;20228;-73
2021/04/29 00:51:37;;;;;;;1.70;0.87;;;15.20;62.10;;;;;;5006933;28;20215;-73
2021/04/29 00:54:04;;;;;;;1.43;0.70;;;15.20;60.80;;;;;;5006053;28;20192;-73
2021/04/29 00:56:30;;;;;;;2.40;0.90;;;15.20;60.30;;;;;;5002971;28;20204;-72
2021/04/29 00:58:57;;;;;;;0.90;0.80;;;15.20;61.30;;;;;;5021499;28;20244;-73
2021/04/29 01:01:24;;;;;;;2.23;0.80;;;15.10;61.70;;;;;;5019920;28;20248;-72
2021/04/29 01:03:59;;;;;;;3.47;1.40;;;15.00;63.90;;;;;;4991774;28;20597;-73
2021/04/29 01:06:52;;;;;;;1.33;0.80;;;14.90;65.90;;;;;;5004840;28;20286;-72
2021/04/29 01:09:52;;;;;;;1.37;0.90;;;14.90;65.40;;;;;;5001680;28;20763;-72
2021/04/29 01:12:34;;;;;;;2.30;0.83;;;14.80;65.40;;;;;;4984569;28;20556;-73
2021/04/29 01:15:02;;;;;;;1.20;0.90;;;14.70;65.70;;;;;;5001237;28;20201;-72
2021/04/29 01:17:31;;;;;;;1.53;1.03;;;14.50;67.90;;;;;;5001922;28;20199;-72
2021/04/29 01:20:07;;;;;;;2.07;1.00;;;14.50;67.60;;;;;;4985349;28;20738;-72
2021/04/29 01:22:54;;;;;;;2.10;1.20;;;14.50;65.80;;;;;;5002740;28;20193;-72
2021/04/29 01:25:28;;;;;;;2.07;0.90;;;14.60;67.00;;;;;;5007392;28;20353;-72
2021/04/29 01:27:56;;;;;;;1.77;0.97;;;14.50;63.80;;;;;;5011266;28;20704;-72
2021/04/29 01:30:23;;;;;;;0.70;0.70;;;14.60;65.80;;;;;;5005493;28;20184;-72
2021/04/29 01:32:50;;;;;;;3.00;0.90;;;14.50;66.50;;;;;;5004932;28;20546;-70
2021/04/29 01:35:18;;;;;;;2.47;1.00;;;14.40;65.50;;;;;;5003170;28;20265;-70
2021/04/29 01:37:48;;;;;;;2.40;1.10;;;14.40;63.80;;;;;;5004440;28;20282;-74
2021/04/29 01:40:16;;;;;;;3.03;0.90;;;14.50;66.00;;;;;;5004356;28;20530;-73
2021/04/29 01:42:43;;;;;;;1.53;0.90;;;14.60;65.80;;;;;;5005610;28;20193;-73
2021/04/29 01:45:10;;;;;;;1.00;0.80;;;14.60;67.10;;;;;;4992381;28;20216;-73
2021/04/29 01:47:37;;;;;;;1.60;0.90;;;14.70;65.30;;;;;;4988724;28;20180;-73
2021/04/29 01:50:08;;;;;;;0.90;0.80;;;14.60;67.10;;;;;;5002415;28;20284;-73
2021/04/29 01:52:34;;;;;;;2.70;0.90;;;14.40;71.90;;;;;;5008419;28;20189;-73
2021/04/29 01:55:04;;;;;;;1.93;0.97;;;14.10;73.50;;;;;;5005486;28;20251;-71
2021/04/29 01:57:31;;;;;;;1.10;0.80;;;14.00;71.30;;;;;;5006914;28;20189;-70
2021/04/29 01:59:57;;;;;;;1.33;0.80;;;14.10;70.10;;;;;;5006751;28;20895;-70
2021/04/29 02:02:25;;;;;;;3.97;1.10;;;14.10;69.90;;;;;;4995293;28;20196;-70
2021/04/29 02:04:51;;;;;;;3.07;1.10;;;14.10;70.30;;;;;;5010029;28;20335;-72
2021/04/29 02:07:18;;;;;;;1.73;1.10;;;14.20;71.10;;;;;;5004938;28;20200;-72
2021/04/29 02:09:49;;;;;;;1.20;1.10;;;14.20;71.90;;;;;;5007072;28;20192;-70
2021/04/29 02:12:20;;;;;;;2.63;0.93;;;14.10;72.10;;;;;;5007490;28;20599;-70
2021/04/29 02:14:53;;;;;;;1.67;0.93;;;14.10;72.00;;;;;;5013184;28;20192;-70
2021/04/29 02:17:49;;;;;;;1.87;0.90;;;14.00;72.00;;;;;;4992204;28;20198;-70
2021/04/29 02:20:18;;;;;;;2.20;1.10;;;14.00;70.50;;;;;;5008504;28;20209;-70
2021/04/29 02:22:46;;;;;;;1.37;0.87;;;13.90;69.20;;;;;;5012336;28;20181;-70
2021/04/29 02:25:15;;;;;;;1.60;0.90;;;14.00;71.30;;;;;;5024074;28;20274;-70
2021/04/29 02:27:43;;;;;;;1.90;1.10;;;14.00;71.20;;;;;;4988742;28;20288;-70
2021/04/29 02:30:17;;;;;;;1.83;1.10;;;14.00;70.90;;;;;;4992101;28;20245;-70
2021/04/29 02:32:43;;;;;;;2.13;0.80;;;14.00;71.30;;;;;;5019679;28;20196;-70
2021/04/29 02:35:16;;;;;;;3.10;1.00;;;13.90;70.70;;;;;;4992961;28;20216;-71
2021/04/29 02:37:48;;;;;;;2.87;1.00;;;13.90;70.30;;;;;;5014059;28;20189;-70
2021/04/29 02:40:16;;;;;;;1.73;1.00;;;13.80;70.40;;;;;;5007533;28;20185;-71
2021/04/29 02:42:43;;;;;;;1.03;0.67;;;13.90;70.20;;;;;;5007386;28;20828;-71
2021/04/29 02:45:14;;;;;;;1.70;0.90;;;13.90;70.40;;;;;;5005622;28;21048;-71
2021/04/29 02:47:47;;;;;;;2.23;0.90;;;13.90;69.90;;;;;;5005239;28;20196;-71
2021/04/29 02:50:17;;;;;;;3.47;1.00;;;13.90;70.90;;;;;;5016771;28;20836;-71
2021/04/29 02:52:51;;;;;;;2.33;1.03;;;13.80;72.50;;;;;;5020676;28;20297;-70
2021/04/29 02:55:19;;;;;;;3.80;0.87;;;13.80;72.30;;;;;;5006758;28;20928;-70
2021/04/29 02:57:46;;;;;;;3.53;0.80;;;13.80;72.20;;;;;;5003377;28;20841;-71
2021/04/29 03:00:17;;;;;;;1.10;0.80;;;13.70;70.30;;;;;;5014670;28;20189;-72
2021/04/29 03:02:44;;;;;;;1.97;0.90;;;13.70;71.00;;;;;;4990863;28;20193;-71
2021/04/29 03:05:13;;;;;;;0.80;0.63;;;13.80;68.60;;;;;;5007660;28;20223;-70
2021/04/29 03:07:43;;;;;;;1.27;0.83;;;14.00;67.60;;;;;;4987258;28;20643;-71
2021/04/29 03:10:12;;;;;;;1.93;1.20;;;14.20;64.60;;;;;;5024306;28;20193;-70
2021/04/29 03:12:40;;;;;;;3.37;1.17;;;14.50;63.60;;;;;;4989509;28;20189;-70
2021/04/29 03:15:10;;;;;;;2.17;0.93;;;14.50;65.90;;;;;;5006879;28;20242;-73
2021/04/29 03:17:37;;;;;;;3.00;0.97;;;14.40;73.30;;;;;;5006397;28;20242;-73
2021/04/29 03:20:08;;;;;;;2.67;1.03;;;14.30;77.70;;;;;;5006135;28;20212;-71
2021/04/29 03:22:36;;;;;;;3.17;0.87;;;14.10;74.10;;;;;;5007982;28;20185;-71
2021/04/29 03:25:03;;;;;;;1.50;1.10;;;14.10;73.00;;;;;;5007566;28;20252;-73
2021/04/29 03:27:30;;;;;;;3.90;1.10;;;14.10;74.60;;;;;;5021258;28;20189;-71
2021/04/29 03:29:56;;;;;;;1.70;0.90;;;14.10;74.20;;;;;;5024121;28;20851;-70
2021/04/29 03:32:24;;;;;;;5.07;1.10;;;14.10;75.10;;;;;;5004450;28;20200;-70
2021/04/29 03:34:50;;;;;;;3.77;1.07;;;14.00;76.20;;;;;;5002866;28;20232;-71
2021/04/29 03:37:17;;;;;;;5.73;1.10;;;14.10;76.50;;;;;;5004969;28;20230;-72
2021/04/29 03:39:45;;;;;;;2.83;0.90;;;14.20;75.90;;;;;;5006874;28;20189;-70
2021/04/29 03:42:12;;;;;;;3.33;1.20;;;14.20;77.80;;;;;;5005705;28;20180;-71
2021/04/29 03:44:40;;;;;;;4.03;1.10;;;14.20;77.00;;;;;;5013906;28;20208;-70
2021/04/29 03:47:07;;;;;;;6.33;1.10;;;14.20;78.00;;;;;;5017955;28;20241;-70
2021/04/29 03:49:34;;;;;;;4.43;1.03;;;14.30;79.60;;;;;;5006316;28;20622;-71
2021/04/29 03:52:02;;;;;;;3.93;0.93;;;14.30;80.80;;;;;;4997900;28;20277;-71
2021/04/29 03:54:48;;;;;;;2.73;0.90;;;14.30;78.80;;;;;;4988051;28;20891;-71
2021/04/29 03:57:14;;;;;;;4.47;0.87;;;14.70;75.60;;;;;;5005589;28;20657;-73
2021/04/29 03:59:41;;;;;;;6.17;1.43;;;14.80;77.40;;;;;;5007423;28;20224;-74
2021/04/29 04:02:10;;;;;;;3.80;1.10;;;14.90;81.20;;;;;;5004601;28;20189;-74
2021/04/29 04:04:37;;;;;;;4.33;1.17;;;14.90;89.70;;;;;;5000216;28;20288;-74
2021/04/29 04:07:05;;;;;;;5.30;1.40;;;14.80;89.60;;;;;;5002950;28;20212;-73
2021/04/29 04:09:31;;;;;;;5.00;1.50;;;14.90;86.20;;;;;;5005781;28;20188;-70
2021/04/29 04:11:59;;;;;;;6.60;1.10;;;15.00;90.20;;;;;;5009249;28;20185;-70
2021/04/29 04:14:26;;;;;;;9.87;1.77;;;15.10;87.90;;;;;;5003031;28;20192;-71
2021/04/29 04:16:53;;;;;;;7.17;1.57;;;15.20;89.60;;;;;;5000808;28;20185;-71
2021/04/29 04:19:19;;;;;;;7.70;1.50;;;15.30;91.60;;;;;;5004322;28;20201;-70
2021/04/29 04:21:45;;;;;;;8.63;1.63;;;15.40;92.60;;;;;;4988179;28;20729;-73
2021/04/29 04:24:12;;;;;;;6.67;1.73;;;15.60;90.10;;;;;;4992343;28;20255;-74
2021/04/29 04:26:39;;;;;;;10.60;1.90;;;15.90;90.00;;;;;;4987282;28;20212;-74
2021/04/29 04:29:05;;;;;;;15.83;2.10;;;16.10;91.10;;;;;;5004681;28;20258;-73
2021/04/29 04:31:32;;;;;;;13.20;2.13;;;16.20;93.20;;;;;;5006504;28;20242;-73
2021/04/29 04:34:07;;;;;;;10.77;1.90;;;16.30;93.80;;;;;;5004064;28;20594;-73
2021/04/29 04:36:34;;;;;;;12.83;2.47;;;16.60;91.10;;;;;;5012018;28;20196;-73
2021/04/29 04:39:03;;;;;;;9.03;2.10;;;16.90;89.50;;;;;;5018948;28;20200;-74
2021/04/29 04:41:30;;;;;;;8.50;2.17;;;17.30;90.30;;;;;;5005030;28;20287;-73
2021/04/29 04:43:57;;;;;;;11.40;1.93;;;17.50;92.20;;;;;;5012459;28;20244;-74
2021/04/29 04:46:27;;;;;;;10.50;1.90;;;17.40;92.90;;;;;;5002032;28;20221;-74
2021/04/29 04:48:53;;;;;;;13.77;2.37;;;17.30;95.10;;;;;;5003620;28;20189;-74
2021/04/29 04:51:20;;;;;;;15.37;2.47;;;17.50;99.90;;;;;;4986521;28;20522;-73
2021/04/29 04:53:47;;;;;;;21.57;2.77;;;17.90;99.90;;;;;;5001742;28;20542;-73
2021/04/29 04:56:13;;;;;;;10.60;2.17;;;18.20;99.90;;;;;;5008586;28;20201;-73
2021/04/29 04:58:41;;;;;;;13.10;2.00;;;18.40;99.90;;;;;;5002898;28;20189;-74
2021/04/29 05:01:07;;;;;;;7.03;2.07;;;18.50;98.10;;;;;;4993691;28;20197;-74
2021/04/29 05:03:34;;;;;;;16.63;3.03;;;18.70;98.80;;;;;;5002591;28;20847;-71
2021/04/29 05:06:01;;;;;;;17.13;2.87;;;18.90;99.90;;;;;;4988551;28;20216;-72
2021/04/29 05:08:28;;;;;;;9.17;2.00;;;19.00;99.90;;;;;;5004298;28;20180;-71
2021/04/29 05:10:54;;;;;;;13.97;2.17;;;19.20;99.90;;;;;;5014949;28;20181;-71
2021/04/29 05:13:23;;;;;;;16.03;2.43;;;19.20;99.90;;;;;;4987898;28;20592;-72
2021/04/29 05:15:49;;;;;;;11.43;2.40;;;19.30;99.90;;;;;;5009393;28;20258;-71
2021/04/29 05:18:16;;;;;;;14.77;2.07;;;19.30;99.90;;;;;;5008264;28;20631;-70
2021/04/29 05:20:45;;;;;;;17.20;2.60;;;19.40;99.90;;;;;;5011510;28;20830;-70
2021/04/29 05:23:11;;;;;;;9.00;2.10;;;19.30;99.90;;;;;;5019437;28;20638;-70
2021/04/29 05:25:38;;;;;;;13.70;2.37;;;19.10;99.90;;;;;;5002950;28;20570;-70
2021/04/29 05:28:04;;;;;;;8.17;2.20;;;18.80;99.90;;;;;;4985520;28;20252;-71
2021/04/29 05:30:32;;;;;;;11.30;1.93;;;18.70;99.90;;;;;;4987479;28;20284;-71
2021/04/29 05:32:59;;;;;;;6.47;1.80;;;18.70;99.50;;;;;;5002671;28;20705;-71
2021/04/29 05:35:26;;;;;;;5.47;1.77;;;18.90;99.50;;;;;;5022672;28;20678;-71
2021/04/29 05:37:52;;;;;;;3.67;1.13;;;19.00;95.30;;;;;;5013204;28;20541;-71
2021/04/29 05:40:19;;;;;;;3.80;1.30;;;18.90;91.50;;;;;;5004972;28;20189;-72
2021/04/29 05:42:46;;;;;;;5.90;1.83;;;18.90;91.90;;;;;;5005702;28;20250;-72
2021/04/29 05:45:14;;;;;;;5.53;1.70;;;19.10;91.50;;;;;;5000052;28;20224;-71
2021/04/29 05:47:40;;;;;;;4.80;1.57;;;19.10;92.40;;;;;;5017177;28;20190;-71
2021/04/29 05:50:08;;;;;;;5.23;1.57;;;19.10;92.30;;;;;;5000340;28;20186;-72
2021/04/29 05:52:35;;;;;;;10.17;1.90;;;19.00;90.70;;;;;;5000605;28;20284;-71
2021/04/29 05:55:04;;;;;;;5.70;1.70;;;18.90;90.60;;;;;;4990687;28;20197;-71
2021/04/29 05:57:31;;;;;;;8.83;1.73;;;19.00;90.90;;;;;;4998827;28;20276;-71
2021/04/29 05:59:57;;;;;;;8.13;1.70;;;19.10;86.50;;;;;;5003751;28;20181;-72
2021/04/29 06:02:25;;;;;;;6.57;1.73;;;18.90;88.10;;;;;;5013326;28;20578;-71
2021/04/29 06:04:52;;;;;;;5.77;1.60;;;19.10;89.30;;;;;;5013778;28;20199;-71
2021/04/29 06:07:19;;;;;;;4.07;1.30;;;19.40;91.10;;;;;;5000360;28;20205;-71
2021/04/29 06:09:46;;;;;;;6.03;1.60;;;19.40;93.20;;;;;;5002677;28;20189;-71
2021/04/29 06:12:12;;;;;;;6.50;1.80;;;19.40;91.80;;;;;;5001825;28;20193;-71
2021/04/29 06:14:40;;;;;;;5.10;1.80;;;19.40;92.70;;;;;;5003219;28;20207;-72
2021/04/29 06:17:06;;;;;;;5.27;1.60;;;19.50;91.60;;;;;;4986762;28;20185;-71
2021/04/29 06:19:33;;;;;;;3.47;1.43;;;19.40;91.40;;;;;;4989092;28;20185;-71
2021/04/29 06:21:59;;;;;;;5.80;1.60;;;19.60;92.40;;;;;;5001881;28;20192;-71
2021/04/29 06:24:26;;;;;;;10.93;1.60;;;19.70;92.40;;;;;;5021204;28;20375;-71
2021/04/29 06:26:52;;;;;;;11.33;1.90;;;19.80;91.10;;;;;;4998679;28;20212;-71
2021/04/29 06:29:26;;;;;;;4.80;2.10;;;19.90;94.20;;;;;;4987077;28;20194;-71
2021/04/29 06:31:52;;;;;;;4.10;1.73;;;20.10;95.30;;;;;;5004572;28;20197;-71
2021/04/29 06:34:20;;;;;;;6.30;2.33;;;20.10;97.20;;;;;;5004261;28;20216;-71
2021/04/29 06:36:49;;;;;;;5.03;1.80;;;20.20;99.00;;;;;;5015558;28;20272;-71
2021/04/29 06:39:19;;;;;;;4.30;2.20;;;20.30;99.60;;;;;;5001721;28;20199;-71
2021/04/29 06:41:46;;;;;;;4.93;2.13;;;20.40;99.50;;;;;;4998404;28;20196;-72
2021/04/29 06:44:22;;;;;;;9.40;2.03;;;20.40;98.90;;;;;;5006095;28;20280;-71
2021/04/29 06:46:50;;;;;;;5.83;2.00;;;20.40;98.50;;;;;;5003870;28;21008;-73
2021/04/29 06:49:39;;;;;;;5.93;2.10;;;20.50;99.70;;;;;;5007311;28;20649;-70
2021/04/29 06:52:07;;;;;;;8.67;2.17;;;20.60;99.80;;;;;;5002681;28;20205;-73
2021/04/29 06:54:39;;;;;;;6.37;2.10;;;20.50;99.90;;;;;;4999817;28;20193;-73
2021/04/29 06:57:10;;;;;;;7.20;2.30;;;20.80;99.00;;;;;;4988549;28;20772;-71
2021/04/29 06:59:38;;;;;;;5.20;1.73;;;20.90;99.90;;;;;;4990280;28;20212;-70
2021/04/29 07:02:09;;;;;;;8.97;2.10;;;21.10;99.90;;;;;;5003581;28;20233;-70
2021/04/29 07:04:40;;;;;;;9.00;1.90;;;21.30;99.90;;;;;;5001251;28;20224;-70
2021/04/29 07:07:13;;;;;;;4.70;1.97;;;21.10;99.90;;;;;;5000022;28;20295;-73
2021/04/29 07:09:52;;;;;;;4.80;1.97;;;21.30;99.90;;;;;;4985973;28;20232;-71
2021/04/29 07:16:00;;;;;;;9.10;2.40;;;21.30;99.90;;;;;;4999318;28;20197;-71
2021/04/29 07:18:28;;;;;;;6.43;2.27;;;21.50;99.90;;;;;;4963452;28;20333;-72
2021/04/29 07:20:56;;;;;;;5.43;1.97;;;21.70;99.90;;;;;;4979325;28;20197;-70
2021/04/29 07:23:23;;;;;;;8.77;2.43;;;21.70;99.90;;;;;;4985420;28;20189;-71
2021/04/29 07:25:51;;;;;;;5.40;1.83;;;21.70;99.90;;;;;;4975631;28;20228;-72
2021/04/29 07:28:22;;;;;;;5.47;1.90;;;21.90;99.70;;;;;;5001188;28;20566;-72
2021/04/29 07:30:55;;;;;;;7.07;2.13;;;21.90;99.90;;;;;;4996594;28;20206;-72
2021/04/29 07:33:23;;;;;;;7.53;2.03;;;22.00;97.80;;;;;;4989228;28;20228;-72
2021/04/29 07:35:52;;;;;;;8.50;2.17;;;22.00;99.90;;;;;;5004197;28;20193;-72
2021/04/29 07:38:19;;;;;;;4.73;2.03;;;22.20;99.40;;;;;;4982020;28;20193;-72
2021/04/29 07:40:45;;;;;;;6.53;1.90;;;22.50;99.90;;;;;;4985365;28;20253;-71
2021/04/29 07:43:15;;;;;;;6.40;1.87;;;22.70;99.90;;;;;;4988980;28;21157;-71
2021/04/29 07:45:41;;;;;;;8.97;2.00;;;22.80;99.90;;;;;;5002409;28;20287;-73
2021/04/29 07:48:10;;;;;;;5.03;2.13;;;23.00;99.70;;;;;;4965179;28;20205;-74
2021/04/29 07:50:36;;;;;;;8.67;2.10;;;23.10;99.50;;;;;;5001836;28;20223;-73
2021/04/29 07:53:03;;;;;;;6.20;2.27;;;23.10;99.60;;;;;;4987104;28;20204;-73
2021/04/29 07:55:30;;;;;;;6.27;2.50;;;23.20;99.00;;;;;;5022123;28;20204;-74
2021/04/29 07:57:56;;;;;;;7.97;2.93;;;23.40;99.40;;;;;;4985834;28;20200;-74
2021/04/29 08:00:24;;;;;;;7.73;2.27;;;23.60;99.90;;;;;;5004177;28;20251;-74
2021/04/29 08:02:51;;;;;;;6.20;2.38;;;23.70;99.90;;;;;;5008990;28;20259;-74
2021/04/29 08:05:18;;;;;;;7.97;2.60;;;23.80;99.90;;;;;;4986394;28;20217;-74
2021/04/29 08:07:45;;;;;;;3.70;2.13;;;24.00;99.90;;;;;;4985149;28;20511;-73
2021/04/29 08:10:14;;;;;;;10.40;2.40;;;24.00;99.80;;;;;;5003905;28;20287;-73
2021/04/29 08:12:41;;;;;;;6.40;2.70;;;24.00;99.90;;;;;;5007625;28;20197;-73
2021/04/29 08:15:09;;;;;;;7.25;2.15;;;24.20;99.90;;;;;;4998208;28;20221;-74
2021/04/29 08:17:36;;;;;;;5.10;2.63;;;24.20;99.90;;;;;;5003252;28;20194;-74
2021/04/29 08:20:05;;;;;;;7.13;2.47;;;24.20;99.40;;;;;;5005688;28;20590;-74
2021/04/29 08:22:32;;;;;;;11.30;2.40;;;24.10;99.90;;;;;;5001345;28;20280;-74
2021/04/29 08:25:00;;;;;;;5.40;2.25;;;24.30;99.90;;;;;;4997311;28;20197;-73
2021/04/29 08:27:28;;;;;;;11.00;2.60;;;24.40;99.90;;;;;;4994684;28;20669;-74
2021/04/29 08:29:57;;;;;;;9.93;2.83;;;24.50;99.00;;;;;;4995274;28;20181;-72
2021/04/29 08:32:26;;;;;;;13.38;3.15;;;24.70;99.90;;;;;;5000074;28;20209;-73
2021/04/29 08:34:53;;;;;;;11.52;2.90;;;24.80;99.90;;;;;;4998743;28;20653;-73
2021/04/29 08:37:20;;;;;;;8.20;2.67;;;24.90;99.90;;;;;;4997517;28;20233;-73
2021/04/29 08:39:48;;;;;;;6.78;2.75;;;24.90;99.90;;;;;;4997844;28;20189;-74
2021/04/29 08:42:16;;;;;;;12.68;2.92;;;24.90;99.90;;;;;;4999831;28;20184;-73
2021/04/29 08:44:45;;;;;;;13.73;2.90;;;24.80;99.90;;;;;;4987843;28;20220;-73
2021/04/29 08:47:17;;;;;;;7.97;2.55;;;24.90;99.90;;;;;;4996499;28;20685;-72
2021/04/29 08:49:54;;;;;;;5.88;2.33;;;25.00;99.90;;;;;;4996944;28;20212;-73
2021/04/29 08:52:23;;;;;;;11.25;2.88;;;25.00;99.90;;;;;;4999036;28;20200;-73
2021/04/29 08:54:54;;;;;;;6.72;3.05;;;24.80;99.90;;;;;;5000643;28;20184;-73
2021/04/29 08:57:26;;;;;;;9.32;3.38;;;24.70;99.90;;;;;;4995370;28;20185;-72
2021/04/29 08:59:57;;;;;;;8.57;3.20;;;24.60;99.90;;;;;;5002186;28;20281;-74
2021/04/29 09:02:55;;;;;;;8.15;3.17;;;24.70;99.90;;;;;;4997869;28;20231;-74
2021/04/29 09:05:37;;;;;;;8.65;2.72;;;24.90;99.90;;;;;;4999052;28;20247;-72
2021/04/29 09:08:13;;;;;;;11.77;2.80;;;25.00;99.90;;;;;;4999190;28;20189;-72
2021/04/29 09:10:44;;;;;;;11.63;3.33;;;24.90;99.90;;;;;;5001894;28;20184;-72
2021/04/29 09:13:16;;;;;;;9.30;3.08;;;25.00;99.90;;;;;;5001754;28;20193;-72
2021/04/29 09:15:54;;;;;;;17.65;3.00;;;25.00;99.90;;;;;;4980334;28;20302;-71
2021/04/29 09:18:31;;;;;;;10.25;2.95;;;25.10;99.90;;;;;;5008246;28;20243;-72
2021/04/29 09:21:10;;;;;;;11.57;2.70;;;25.30;99.90;;;;;;4995897;28;20211;-72
2021/04/29 09:23:40;;;;;;;6.32;2.53;;;25.60;99.90;;;;;;5013228;28;20272;-72
2021/04/29 09:26:24;;;;;;;6.10;2.15;;;25.80;99.90;;;;;;4987307;28;20299;-71
2021/04/29 09:28:56;;;;;;;6.75;2.22;;;25.90;99.90;;;;;;5005004;28;20196;-73
2021/04/29 09:31:27;;;;;;;9.07;2.55;;;26.10;99.90;;;;;;5015204;28;20247;-71
2021/04/29 09:33:59;;;;;;;10.77;3.05;;;26.10;99.90;;;;;;5001399;28;20737;-72
2021/04/29 09:36:31;;;;;;;4.50;2.30;;;26.30;99.90;;;;;;4984080;28;20279;-77
2021/04/29 09:39:17;;;;;;;9.05;2.70;;;26.30;99.90;;;;;;4986325;28;20231;-71
2021/04/29 09:41:47;;;;;;;5.15;2.67;;;26.30;99.90;;;;;;5012171;28;20189;-72
2021/04/29 09:44:20;;;;;;;7.97;2.42;;;26.50;99.90;;;;;;5000156;28;20546;-71
2021/04/29 09:47:02;;;;;;;10.55;2.38;;;26.80;99.90;;;;;;4999264;28;20333;-71
2021/04/29 09:49:39;;;;;;;12.77;2.78;;;27.10;99.90;;;;;;4998400;28;20335;-71
2021/04/29 09:52:24;;;;;;;5.80;2.55;;;27.10;99.90;;;;;;5001617;28;20279;-71
2021/04/29 09:54:52;;;;;;;6.18;2.35;;;27.20;99.90;;;;;;4980584;28;20189;-71
2021/04/29 09:57:26;;;;;;;14.40;3.00;;;27.20;99.90;;;;;;4979414;28;20240;-71
2021/04/29 09:59:57;;;;;;;10.05;3.25;;;27.50;99.90;;;;;;4997189;28;20192;-70
2021/04/29 10:02:26;;;;;;;10.70;3.28;;;27.50;99.90;;;;;;4999316;28;20193;-71
2021/04/29 10:04:54;;;;;;;8.05;3.08;;;27.30;99.90;;;;;;4994764;28;20193;-71
2021/04/29 10:07:23;;;;;;;6.05;2.88;;;27.00;99.90;;;;;;4999690;28;20760;-71
2021/04/29 10:09:50;;;;;;;9.27;3.05;;;27.00;99.90;;;;;;4979287;28;20684;-71
2021/04/29 10:12:22;;;;;;;8.57;3.22;;;27.00;99.90;;;;;;5002554;28;20203;-71
2021/04/29 10:14:51;;;;;;;9.05;3.10;;;27.10;99.90;;;;;;4979556;28;20188;-72
2021/04/29 10:17:20;;;;;;;9.10;2.85;;;27.20;99.90;;;;;;5006013;28;20200;-72
2021/04/29 10:19:54;;;;;;;7.57;3.05;;;27.30;99.90;;;;;;5020234;28;20270;-71
2021/04/29 10:22:27;;;;;;;8.00;2.95;;;27.60;99.90;;;;;;5007642;28;21340;-71
2021/04/29 10:24:55;;;;;;;12.98;2.92;;;27.60;99.90;;;;;;4985836;28;20200;-71
2021/04/29 10:27:28;;;;;;;6.78;3.33;;;27.40;99.90;;;;;;5004493;28;20208;-71
2021/04/29 10:30:11;;;;;;;9.52;3.00;;;27.60;99.90;;;;;;5004438;28;20193;-72
2021/04/29 10:32:39;;;;;;;8.52;3.42;;;27.50;99.90;;;;;;4985433;28;20205;-72
2021/04/29 10:35:23;;;;;;;9.60;3.47;;;27.50;99.90;;;;;;5001415;28;20277;-72
2021/04/29 10:38:03;;;;;;;13.98;2.95;;;27.50;99.90;;;;;;4986960;28;20216;-71
2021/04/29 10:40:39;;;;;;;8.30;3.05;;;27.30;99.90;;;;;;4997876;28;20189;-71
2021/04/29 10:43:09;;;;;;;11.88;3.63;;;27.20;99.90;;;;;;5015390;28;20234;-71
2021/04/29 10:45:36;;;;;;;8.98;3.50;;;27.00;99.90;;;;;;5001037;28;20213;-71
2021/04/29 10:48:11;;;;;;;13.50;3.45;;;27.00;99.90;;;;;;4999444;28;21043;-72
2021/04/29 10:50:51;;;;;;;14.82;3.78;;;27.00;99.90;;;;;;4988837;28;20609;-71
2021/04/29 10:53:32;;;;;;;9.20;3.45;;;27.00;99.90;;;;;;5000982;28;20190;-71
2021/04/29 10:56:17;;;;;;;9.35;3.55;;;26.80;99.90;;;;;;5007956;28;20339;-71
2021/04/29 10:58:45;;;;;;;7.82;3.00;;;26.70;99.90;;;;;;5003782;28;20220;-73
2021/04/29 11:01:19;;;;;;;9.73;3.38;;;26.60;99.90;;;;;;5003919;28;20272;-74
2021/04/29 11:03:50;;;;;;;8.43;3.30;;;26.70;99.90;;;;;;5017510;28;20212;-73
2021/04/29 11:06:32;;;;;;;8.93;3.88;;;26.70;99.90;;;;;;4986870;28;20269;-71
2021/04/29 11:09:01;;;;;;;7.53;2.95;;;26.70;99.90;;;;;;5018681;28;20193;-71
2021/04/29 11:11:34;;;;;;;8.23;3.65;;;26.70;99.90;;;;;;4973120;28;20185;-71
2021/04/29 11:14:16;;;;;;;9.93;3.28;;;26.70;99.90;;;;;;5000129;28;20201;-72
2021/04/29 11:17:02;;;;;;;8.48;3.30;;;26.90;99.90;;;;;;4985283;28;20970;-73
2021/04/29 11:19:53;;;;;;;9.32;3.33;;;26.70;99.90;;;;;;5004657;28;20203;-72
2021/04/29 11:22:37;;;;;;;11.90;3.40;;;26.60;99.90;;;;;;5004207;28;20220;-72
2021/04/29 11:25:10;;;;;;;4.50;2.60;;;26.90;99.90;;;;;;5003860;28;20850;-71
2021/04/29 11:27:40;;;;;;;7.07;3.00;;;26.90;99.90;;;;;;5016185;28;20517;-72
2021/04/29 11:30:16;;;;;;;7.93;3.25;;;27.00;99.90;;;;;;5001884;28;20243;-72
2021/04/29 11:33:02;;;;;;;18.50;3.58;;;27.00;99.90;;;;;;5015591;28;20291;-71
2021/04/29 11:35:34;;;;;;;8.77;3.10;;;26.90;99.90;;;;;;5018364;28;21460;-71
2021/04/29 11:38:03;;;;;;;10.52;3.28;;;26.90;99.90;;;;;;5002507;28;20192;-71
2021/04/29 11:40:33;;;;;;;6.60;2.70;;;27.00;99.90;;;;;;5002781;28;20193;-72
2021/04/29 11:43:02;;;;;;;11.35;3.92;;;27.00;99.90;;;;;;5005172;28;20193;-72
2021/04/29 11:45:42;;;;;;;7.82;3.17;;;27.00;99.90;;;;;;4985438;28;20656;-73
2021/04/29 11:48:15;;;;;;;7.28;2.72;;;27.00;99.90;;;;;;5001605;28;20242;-72
2021/04/29 11:50:52;;;;;;;11.77;3.38;;;27.00;99.90;;;;;;5009640;28;20667;-72
2021/04/29 11:53:27;;;;;;;9.35;3.15;;;27.00;99.90;;;;;;4985330;28;20545;-73
2021/04/29 11:56:05;;;;;;;7.88;3.20;;;27.20;99.90;;;;;;5003063;28;20189;-72
2021/04/29 11:58:36;;;;;;;16.98;3.67;;;27.10;99.90;;;;;;4985582;28;20190;-72
2021/04/29 12:02:17;;;;;;;8.50;3.03;;;27.20;99.90;;;;;;5001972;28;20272;-71
2021/04/29 12:04:49;;;;;;;7.38;2.95;;;27.10;99.90;;;;;;5004032;28;20213;-71
2021/04/29 12:07:19;;;;;;;13.75;3.25;;;27.10;99.90;;;;;;5001688;28;21514;-71
2021/04/29 12:09:59;;;;;;;46.15;4.10;;;27.10;99.90;;;;;;5014675;28;21160;-73
2021/04/29 12:12:28;;;;;;;9.30;3.00;;;27.00;99.90;;;;;;5003147;28;20267;-71
2021/04/29 12:15:01;;;;;;;8.95;3.17;;;27.00;99.90;;;;;;5005101;28;20192;-72
2021/04/29 12:17:35;;;;;;;9.38;3.05;;;27.20;99.90;;;;;;5001841;28;20212;-73
2021/04/29 12:20:03;;;;;;;11.48;3.40;;;27.10;99.90;;;;;;5008193;28;20822;-72
2021/04/29 12:22:32;;;;;;;9.80;3.35;;;27.20;99.90;;;;;;4995453;28;20209;-72
2021/04/29 12:25:03;;;;;;;11.80;3.45;;;27.10;99.90;;;;;;4991123;28;20196;-74
2021/04/29 12:27:40;;;;;;;12.90;3.92;;;26.90;99.90;;;;;;4997625;28;21034;-73
2021/04/29 12:30:09;;;;;;;11.27;3.65;;;26.70;99.90;;;;;;4998168;28;20307;-73
2021/04/29 12:32:47;;;;;;;12.55;3.90;;;26.60;99.90;;;;;;5007435;28;20201;-72
2021/04/29 12:35:28;;;;;;;18.65;4.13;;;26.40;99.90;;;;;;4997571;28;20226;-73
2021/04/29 12:37:59;;;;;;;12.48;3.60;;;26.10;99.90;;;;;;4999087;28;20184;-72
2021/04/29 12:40:28;;;;;;;13.63;3.30;;;26.00;99.90;;;;;;5005674;28;20752;-74
2021/04/29 12:43:23;;;;;;;11.48;3.38;;;25.80;99.90;;;;;;4981658;28;20188;-74
2021/04/29 12:45:57;;;;;;;7.23;2.97;;;25.70;99.90;;;;;;5002144;28;20205;-74
2021/04/29 12:48:41;;;;;;;9.60;3.13;;;25.60;99.90;;;;;;4983580;28;20584;-73
2021/04/29 12:51:20;;;;;;;8.32;3.75;;;25.70;99.90;;;;;;4999909;28;20262;-74
2021/04/29 12:54:13;;;;;;;6.65;3.20;;;25.60;99.90;;;;;;4981545;28;20283;-73
2021/04/29 12:56:46;;;;;;;5.77;3.00;;;25.60;99.90;;;;;;5004025;28;20204;-73
2021/04/29 12:59:19;;;;;;;7.28;3.28;;;25.30;99.90;;;;;;4990233;28;20634;-73
2021/04/29 13:01:59;;;;;;;8.57;2.88;;;25.20;99.90;;;;;;5017606;28;20339;-73
2021/04/29 13:04:31;;;;;;;9.52;3.35;;;25.20;99.90;;;;;;4986446;28;20650;-73
2021/04/29 13:07:03;;;;;;;10.70;3.37;;;25.00;99.90;;;;;;4985530;28;20266;-72